Address 0xdbbce179e3c080912bd6bd0e9321b45386aef5ef 2

 
 
Txn Hash Method
Block
From
To
Value [Txn Fee]
0xc847f461a502db473de4ec2aa7e2825d1c22c692fe7e17ebcf5337c52dc7e380Transfer107353792021-09-08 12:34:1717 days 2 hrs ago0xdbbce179e3c080912bd6bd0e9321b45386aef5efOUT MoonStarter: MNST Token0 BNB0.00011038
0x583e3070d403643eab848a1ca3adfd98daa0135bf6d39f4715566f167cc4bc19Transfer105197612021-08-31 22:59:0524 days 16 hrs ago0xdbbce179e3c080912bd6bd0e9321b45386aef5efOUT 0xfd0507fac1152faf870c778ff6beb1ca3b9f7a1f0 BNB0.000106175
0xa45a79c7f8b5dda6ae916d6bf9f7233d16a81e53fd8b5e23980ddaf3fc5b390bTransfer105197482021-08-31 22:58:2624 days 16 hrs ago0xdbbce179e3c080912bd6bd0e9321b45386aef5efOUT 0xfd0507fac1152faf870c778ff6beb1ca3b9f7a1f0 BNB0.000181055
0xbb71c3197a3b0f6a2c48eb6bd5f8372b5f595893cb3260fa961b0f4536c6d4a0Transfer105197382021-08-31 22:57:5624 days 16 hrs ago0xdbbce179e3c080912bd6bd0e9321b45386aef5efOUT 0xfd0507fac1152faf870c778ff6beb1ca3b9f7a1f0 BNB0.000256055
0x6677555d79d419dfc289f97f034c95b6756cd2a01ead2dad32c461ee12092dbfClaim Tokens105197252021-08-31 22:57:1724 days 16 hrs ago0xdbbce179e3c080912bd6bd0e9321b45386aef5efOUT 0x97389f65b06a8d2d231cba7cda6317f71ec9ab4c0 BNB0.0040954
0x1d0d52fa9f4fee808428b4ef5344eca3a293727d86e7686e41bb1d9facf1b7a7Transfer105197102021-08-31 22:56:3224 days 16 hrs ago0xf31375adfb592a7ce26e7b59db3fde5b8a48f14c IN 0xdbbce179e3c080912bd6bd0e9321b45386aef5ef0.008917065441857 BNB0.000105
0x100d9935e9a431daf44a99f63cef5ec623470cf6dfe7eef9273bf6d0985f0a39Transfer104232152021-08-28 13:33:2528 days 1 hr ago0xf31375adfb592a7ce26e7b59db3fde5b8a48f14c IN 0xdbbce179e3c080912bd6bd0e9321b45386aef5ef0.002822838416755 BNB0.000105
0x9c9b38526ff0412ef6db80353dda8f0e08d80f9ad016dd35eec4967323e1fac3Transfer103963542021-08-27 14:48:4029 days 34 mins ago0xdbbce179e3c080912bd6bd0e9321b45386aef5efOUT0xf31375adfb592a7ce26e7b59db3fde5b8a48f14c0.00613727078836 BNB0.000105
0x1d761eadb2b7a1550b8dc52be8607f446ce26eee8767da34aca96e24d690b717Transfer103217122021-08-24 23:43:4631 days 15 hrs ago0xdbbce179e3c080912bd6bd0e9321b45386aef5efOUT0xf31375adfb592a7ce26e7b59db3fde5b8a48f14c0.147800449211639 BNB0.000105
0x2db9b287496b99da4f1fe0054ebb38056d074b7b62fec823b7856e154f7a20d9Transfer103217072021-08-24 23:43:3131 days 15 hrs ago0xdbbce179e3c080912bd6bd0e9321b45386aef5efOUT Starter: START Token0 BNB0.000106055
0x56fb779d56eada1f07b3557a51dd56c8c623d72aa3058a6200fa6895585cfb89Unstake103216912021-08-24 23:42:4331 days 15 hrs ago0xdbbce179e3c080912bd6bd0e9321b45386aef5efOUT 0x110a802a550d9465f9de234845942deabbb225240 BNB0.00217205
0xa5e17e1b4aa94b9120f5a772f80fe7c5470c3560db1e849edfd2036fe5819a2cInvest103216532021-08-24 23:40:4931 days 15 hrs ago0xdbbce179e3c080912bd6bd0e9321b45386aef5efOUT 0x97389f65b06a8d2d231cba7cda6317f71ec9ab4c2.02 BNB0.005919475
0x15e7477fa55002a5bbafc5ecc8af6c0041261c280b182eabbe4c59cbe2ca900aInvest103216042021-08-24 23:38:2231 days 15 hrs ago0xdbbce179e3c080912bd6bd0e9321b45386aef5efOUT 0x97389f65b06a8d2d231cba7cda6317f71ec9ab4c2.02 BNB0.00350845
0xd319569dfdbeae8b661f9a8a5788e0cdb0bf582a4b52f8e86be650e84b0f9ab8Transfer103215862021-08-24 23:37:2831 days 15 hrs ago0xf31375adfb592a7ce26e7b59db3fde5b8a48f14c IN 0xdbbce179e3c080912bd6bd0e9321b45386aef5ef0.8 BNB0.000105
0xec372adca1df5bfebbdea1e325dd4c2ec74208b4a221e1dc2b88bc4f5ebdd60eStake103215312021-08-24 23:34:4331 days 15 hrs ago0xdbbce179e3c080912bd6bd0e9321b45386aef5efOUT 0x110a802a550d9465f9de234845942deabbb225240 BNB0.003043275
0x17194b682d971a7bcabee7bb0a0ad58d7ef6e194e556e342a256f1e5f05dee98Approve103215282021-08-24 23:34:3431 days 15 hrs ago0xdbbce179e3c080912bd6bd0e9321b45386aef5efOUT Starter: START Token0 BNB0.001102975
0xf3923afc69455d1f5c796771bbaa055c131117062afc98711cdada9aecfb8966Transfer103215172021-08-24 23:34:0131 days 15 hrs ago0xf31375adfb592a7ce26e7b59db3fde5b8a48f14c IN 0xdbbce179e3c080912bd6bd0e9321b45386aef5ef1.39 BNB0.000105
0x9b2306b94aa39d672ab6fe6af7cf8e16cd69b1ce4fa60a396f23aeb8d414e1f5Transfer102008192021-08-20 18:24:4235 days 20 hrs ago0xdbbce179e3c080912bd6bd0e9321b45386aef5efOUT0xf31375adfb592a7ce26e7b59db3fde5b8a48f14c0.02932037 BNB0.000105
0x41263c2647aebc320a9c3fc968e304fb394e4e1307d3f5df0f539ee7675e3348Approve101982982021-08-20 16:16:1535 days 23 hrs ago0xdbbce179e3c080912bd6bd0e9321b45386aef5efOUT MoonFarm: MFO Token0 BNB0.000072755
0x8565290cb955445a374aa4d200835ce08b394d3c44901e282b58b292a99c3cb4Approve101982962021-08-20 16:16:0935 days 23 hrs ago0xdbbce179e3c080912bd6bd0e9321b45386aef5efOUT Nabox: NABOX Token0 BNB0.00007261
0x7ae682137b757f76ea48938ac13dd33ac77c7e4a5f75582d9a0157b97545aca5Approve101982942021-08-20 16:16:0335 days 23 hrs ago0xdbbce179e3c080912bd6bd0e9321b45386aef5efOUT Seedify: SFUND Token0 BNB0.000074095
0xed446867ee4fd050647703fab68a832501d3430dd3fe661eefb4f555baa8f91cApprove101982902021-08-20 16:15:5135 days 23 hrs ago0xdbbce179e3c080912bd6bd0e9321b45386aef5efOUT AlinX: ALIX Token0 BNB0.000072615
0xd697a96bbdd4342d3f754544f5a3333bd7a2de60be8951f5713a24aabebafcb2Approve101982822021-08-20 16:15:2735 days 23 hrs ago0xdbbce179e3c080912bd6bd0e9321b45386aef5efOUT 0x678e5f70b6b582dfadb3dbd68af17801d34555c50 BNB0.000072555
0x994032a10868eeb103524fcd09391068befe4b554dda3c60aad247e9e58f7cebTransfer101972062021-08-20 15:19:4036 days 3 mins ago0xdbbce179e3c080912bd6bd0e9321b45386aef5efOUT0x454176e5a5f787d2f96ef49d9fdadab09d9e3da70.32 BNB0.000105
0x48a58a6291ad6913a2ffea7a5531030316fd0800acecab9d1ec530f390843607Transfer101957492021-08-20 14:04:4136 days 1 hr ago0xdbbce179e3c080912bd6bd0e9321b45386aef5efOUT0x405d4397df7cce6d269bd9bde35dd5df1884edca0.2 BNB0.000105
[ Download CSV Export 
Latest 3 internal transactions
Parent Txn Hash Block From To Value
0xfb758a86b06637297a961eccb30ac65ee003b2c70bcd55f87ddf067a6b6e221b101929682021-08-20 11:43:1536 days 3 hrs ago PancakeSwap: Router v20xdbbce179e3c080912bd6bd0e9321b45386aef5ef10.054202779676352792 BNB
0xd4a4225b0a8b08283716b5b31ad6ce90e7941e44b627207deb320d87535b966482916052021-06-14 13:59:01103 days 1 hr ago PancakeSwap: Router v20xdbbce179e3c080912bd6bd0e9321b45386aef5ef0.646935297362469877 BNB
0x87541efdcd5d1001e86155952bf246497b225154b2edfc7c0e7aba402880c57681922902021-06-11 2:34:19106 days 12 hrs ago PancakeSwap: Router v20xdbbce179e3c080912bd6bd0e9321b45386aef5ef0.894463866787626113 BNB
[ Download CSV Export 
Loading

Contract Name:
0 BNB

Compiler Version
0

Optimization Enabled:
0 BNB

Other Settings:
-NA-
Block Transaction Gas Used Reward
Age Block Fee Address BC Fee Address Voting Power Jailed Incoming
Block Uncle Number Difficulty Gas Used Reward
Loading
Loading
Make sure to use the "Vote Down" button for any spammy posts, and the "Vote Up" for interesting conversations.